CheckWX is a tool to help pilots better visualize weather data.  It is not intended as a substitute for an official pre-flight weather briefing.

13:19:05 UTC

8D3 METAR
Sisseton Municipal Airport
Sisseton, South Dakota, USA
Current

23 mins ago

K8D3 211256Z AUTO 17007KT 18/18 A2965 RMK AO1 SLP024 T01780178
Observed
Sep-21 @ 12:56 UTC
Wind
  • 170° at 7 KTS
Visibility
Temperature
18°C / 64°F
Dewpoint
18°C / 64°F
Humidity
100%
Altimeter
29.65" Hg
Pressure
1004.02 hPa
Previous

1 hour ago

K8D3 211156Z AUTO 11011KT 18/18 A2960 RMK AO1 PRESFR SLP005 P0009 60031 70031 T01830183 10228 20183 58021
Observed
Sep-21 @ 11:56 UTC
Wind
  • 110° at 11 KTS
Visibility
Temperature
18°C / 64°F
Dewpoint
18°C / 64°F
Humidity
100%
Altimeter
29.6" Hg
Pressure
1002.42 hPa
Current Rain
0.09"
24 Hour Rain
0.31"
Previous

2 hours ago

K8D3 211056Z AUTO 28006G29KT 20/20 A2967 RMK AO1 PK WND 26047/1044 WSHFT 1036 SLP028 P0022 T02000200
Observed
Sep-21 @ 10:56 UTC
Wind
  • 280° at 6 KTS
  • Gusting to 29 KTS
Visibility
Temperature
20°C / 68°F
Dewpoint
20°C / 68°F
Humidity
100%
Altimeter
29.67" Hg
Pressure
1004.72 hPa
Current Rain
0.22"